Crawfordville, FL (32326)

3:18 PM EDT on September 01, 2014 (GMT -0400)
Songbird | Change Station
CLOSE
Current Station
Personal Weather Station
Location: Crawfordville, FL
Elevation: 0 ft
Nearby Weather Stations

Elev 0 ft 30.20 °N, 84.36 °W | Updated 4 seconds ago

Mostly Cloudy
Mostly Cloudy
92.7 °F
Feels Like 101 °F
N
2.0
Wind Variable Wind from SSE
Gusts 2.0 mph

Today
High -- | Low -- °F
--% Chance of Precip.
Yesterday
High -- | Low -- °F
Precip. -- in
7:14 AM 8:00 PM
Waxing Crescent, 43% visible
Pressure 30.10 in
Visibility 1.0 miles
Clouds Few 2000 ft
Mostly Cloudy 4000 ft
Overcast 10000 ft
Heat Index 101 °F
Dew Point 72 °F
Humidity 51%
Rainfall 0.00 in
Snow Depth Not available.
UV 3 out of 12
Pollen 7.70 out of 12
Air Quality Not available.
Flu Activity Not available.
SPECI KTLH 011913Z VRB06KT 1SM +TSRA FEW020 BKN040CB OVC100 29/23 A3010 RMK AO2 TSB13 PRESRR OCNL LTGCG OHD TS OHD MOV NW P0011 $

More Conditions Fewer Conditions

Pressure 30.10 in
Visibility 1.0 miles
Clouds Few 2000 ft
Mostly Cloudy 4000 ft
Overcast 10000 ft
Heat Index 101 °F
Dew Point 72 °F
Humidity 51%
Rainfall 0.00 in
Snow Depth Not available.
UV 3 out of 12
Pollen 7.70 out of 12
Air Quality Not available.
Flu Activity Not available.
SPECI KTLH 011913Z VRB06KT 1SM +TSRA FEW020 BKN040CB OVC100 29/23 A3010 RMK AO2 TSB13 PRESRR OCNL LTGCG OHD TS OHD MOV NW P0011 $

More Conditions Fewer Conditions

10-Day Weather Forecast

Almanac

Astronomy

Sep. 01, 2014 Rise Set
Actual Time 7:14 AM EDT 8:00 PM EDT
Civil Twilight 6:49 AM EDT 8:24 PM EDT
Nautical Twilight 6:21 AM EDT 8:53 PM EDT
Astronomical Twilight 5:51 AM EDT 9:22 PM EDT
Moon 1:30 PM EDT No Moon Set
Length of Visible Light 13h 34m
Length of Day
12h 45m
Tomorrow will be 1m 44s shorter.
Waxing Crescent, 43% of the Moon is Illuminated
Today
Waxing Crescent
Sep 2
First Quarter
Sep 8
Full
Sep 15
Last Quarter
Sep 24
New

Today's Extremes

State Highs State Lows

Community

WunderPhotos

Upload Photos

1,749,373 photos uploaded!

WunderBlogs® & News

Nearby

Snow Depth

Station Depth Elevation
No new snow has been reported.

Earthquake Activity

City Distance Mag. Time & Date
No recent earthquake activity has been reported nearby.
Minimum magnitude displayed is 2.5.

Coastal Water Temperatures

Place Temperature
Apalachicola, FL 87.1 °F
Panama City, FL 88.0 °F

Nearby Weather Stations